sensor_id;sensor_type;location;lat;lon;timestamp;temperature;humidity
2873;DHT22;1444;49.166;7.312;2022-10-13T00:03:21;8.70;99.90
2873;DHT22;1444;49.166;7.312;2022-10-13T00:05:49;8.70;99.90
2873;DHT22;1444;49.166;7.312;2022-10-13T00:10:46;9.00;99.90
2873;DHT22;1444;49.166;7.312;2022-10-13T00:13:15;9.00;99.90
2873;DHT22;1444;49.166;7.312;2022-10-13T00:15:43;9.10;99.90
2873;DHT22;1444;49.166;7.312;2022-10-13T00:18:10;9.00;99.90
2873;DHT22;1444;49.166;7.312;2022-10-13T00:20:40;9.10;99.90
2873;DHT22;1444;49.166;7.312;2022-10-13T00:28:02;9.20;99.90
2873;DHT22;1444;49.166;7.312;2022-10-13T00:30:32;9.30;99.90
2873;DHT22;1444;49.166;7.312;2022-10-13T00:32:59;11.50;99.90
2873;DHT22;1444;49.166;7.312;2022-10-13T00:35:26;9.30;99.90
2873;DHT22;1444;49.166;7.312;2022-10-13T00:37:52;9.30;99.90
2873;DHT22;1444;49.166;7.312;2022-10-13T00:40:19;9.30;99.90
2873;DHT22;1444;49.166;7.312;2022-10-13T00:42:46;9.40;99.90
2873;DHT22;1444;49.166;7.312;2022-10-13T00:45:21;9.40;99.90
2873;DHT22;1444;49.166;7.312;2022-10-13T00:47:53;9.40;99.70
2873;DHT22;1444;49.166;7.312;2022-10-13T00:50:23;9.40;99.60
2873;DHT22;1444;49.166;7.312;2022-10-13T00:52:53;9.40;99.50
2873;DHT22;1444;49.166;7.312;2022-10-13T00:57:49;9.30;99.60
2873;DHT22;1444;49.166;7.312;2022-10-13T01:00:19;9.20;99.90
2873;DHT22;1444;49.166;7.312;2022-10-13T01:02:46;9.10;99.90
2873;DHT22;1444;49.166;7.312;2022-10-13T01:05:14;9.10;99.90
2873;DHT22;1444;49.166;7.312;2022-10-13T01:10:09;9.00;99.90
2873;DHT22;1444;49.166;7.312;2022-10-13T01:15:18;9.10;99.90
2873;DHT22;1444;49.166;7.312;2022-10-13T01:17:54;8.80;99.90
2873;DHT22;1444;49.166;7.312;2022-10-13T01:20:46;8.80;99.90
2873;DHT22;1444;49.166;7.312;2022-10-13T01:23:24;8.80;99.90
2873;DHT22;1444;49.166;7.312;2022-10-13T01:26:14;8.80;99.90
2873;DHT22;1444;49.166;7.312;2022-10-13T01:28:58;8.70;99.90
2873;DHT22;1444;49.166;7.312;2022-10-13T01:31:34;8.60;99.90
2873;DHT22;1444;49.166;7.312;2022-10-13T01:34:07;8.70;99.90
2873;DHT22;1444;49.166;7.312;2022-10-13T01:39:08;8.80;99.90
2873;DHT22;1444;49.166;7.312;2022-10-13T01:44:13;8.80;99.90
2873;DHT22;1444;49.166;7.312;2022-10-13T01:46:42;8.80;99.90
2873;DHT22;1444;49.166;7.312;2022-10-13T01:49:13;8.70;99.90
2873;DHT22;1444;49.166;7.312;2022-10-13T01:54:08;8.70;99.90
2873;DHT22;1444;49.166;7.312;2022-10-13T01:56:35;8.60;99.90
2873;DHT22;1444;49.166;7.312;2022-10-13T02:01:43;8.60;99.90
2873;DHT22;1444;49.166;7.312;2022-10-13T02:04:22;8.60;99.90
2873;DHT22;1444;49.166;7.312;2022-10-13T02:06:52;8.60;99.90
2873;DHT22;1444;49.166;7.312;2022-10-13T02:09:26;8.60;99.90
2873;DHT22;1444;49.166;7.312;2022-10-13T02:14:26;8.50;99.90
2873;DHT22;1444;49.166;7.312;2022-10-13T02:16:59;12.00;99.90
2873;DHT22;1444;49.166;7.312;2022-10-13T02:19:26;8.60;99.90
2873;DHT22;1444;49.166;7.312;2022-10-13T02:21:55;8.80;99.90
2873;DHT22;1444;49.166;7.312;2022-10-13T02:24:22;9.00;99.90
2873;DHT22;1444;49.166;7.312;2022-10-13T02:26:49;9.10;99.90
2873;DHT22;1444;49.166;7.312;2022-10-13T02:29:17;9.10;99.90
2873;DHT22;1444;49.166;7.312;2022-10-13T02:34:13;9.20;99.90
2873;DHT22;1444;49.166;7.312;2022-10-13T02:36:40;9.20;99.90
2873;DHT22;1444;49.166;7.312;2022-10-13T02:39:09;9.30;99.90
2873;DHT22;1444;49.166;7.312;2022-10-13T02:41:36;9.40;99.90
2873;DHT22;1444;49.166;7.312;2022-10-13T02:44:03;9.40;99.90
2873;DHT22;1444;49.166;7.312;2022-10-13T02:51:26;9.40;99.90
2873;DHT22;1444;49.166;7.312;2022-10-13T02:53:53;9.40;99.90
2873;DHT22;1444;49.166;7.312;2022-10-13T02:56:19;9.50;99.90
2873;DHT22;1444;49.166;7.312;2022-10-13T02:58:46;9.40;99.90
2873;DHT22;1444;49.166;7.312;2022-10-13T03:01:13;9.50;99.90
2873;DHT22;1444;49.166;7.312;2022-10-13T03:03:41;9.50;99.90
2873;DHT22;1444;49.166;7.312;2022-10-13T03:06:08;9.60;99.90
2873;DHT22;1444;49.166;7.312;2022-10-13T03:08:36;9.50;99.90
2873;DHT22;1444;49.166;7.312;2022-10-13T03:11:03;9.50;99.90
2873;DHT22;1444;49.166;7.312;2022-10-13T03:13:29;9.60;99.90
2873;DHT22;1444;49.166;7.312;2022-10-13T03:15:56;9.50;99.90
2873;DHT22;1444;49.166;7.312;2022-10-13T03:18:23;9.50;99.90
2873;DHT22;1444;49.166;7.312;2022-10-13T03:20:57;9.30;99.90
2873;DHT22;1444;49.166;7.312;2022-10-13T03:25:53;9.20;99.90
2873;DHT22;1444;49.166;7.312;2022-10-13T03:28:20;9.30;99.90
2873;DHT22;1444;49.166;7.312;2022-10-13T03:40:36;9.50;99.90
2873;DHT22;1444;49.166;7.312;2022-10-13T03:43:04;9.60;99.90
2873;DHT22;1444;49.166;7.312;2022-10-13T03:45:31;9.60;99.90
2873;DHT22;1444;49.166;7.312;2022-10-13T03:55:19;9.50;99.90
2873;DHT22;1444;49.166;7.312;2022-10-13T03:57:45;9.60;99.90
2873;DHT22;1444;49.166;7.312;2022-10-13T04:00:15;9.50;99.90
2873;DHT22;1444;49.166;7.312;2022-10-13T04:02:41;9.50;99.90
2873;DHT22;1444;49.166;7.312;2022-10-13T04:14:57;7.30;99.90
2873;DHT22;1444;49.166;7.312;2022-10-13T04:17:25;7.30;99.90
2873;DHT22;1444;49.166;7.312;2022-10-13T04:22:19;9.60;99.90
2873;DHT22;1444;49.166;7.312;2022-10-13T04:24:46;9.50;99.90
2873;DHT22;1444;49.166;7.312;2022-10-13T04:27:12;9.40;99.90
2873;DHT22;1444;49.166;7.312;2022-10-13T04:29:41;9.20;99.90
2873;DHT22;1444;49.166;7.312;2022-10-13T04:32:08;10.00;99.90
2873;DHT22;1444;49.166;7.312;2022-10-13T04:34:36;9.10;99.90
2873;DHT22;1444;49.166;7.312;2022-10-13T04:37:03;9.00;99.90
2873;DHT22;1444;49.166;7.312;2022-10-13T04:39:30;9.00;99.90
2873;DHT22;1444;49.166;7.312;2022-10-13T04:46:50;9.40;99.90
2873;DHT22;1444;49.166;7.312;2022-10-13T04:51:46;9.50;99.90
2873;DHT22;1444;49.166;7.312;2022-10-13T04:54:12;9.50;99.90
2873;DHT22;1444;49.166;7.312;2022-10-13T04:56:39;9.50;99.90
2873;DHT22;1444;49.166;7.312;2022-10-13T04:59:06;9.50;99.90
2873;DHT22;1444;49.166;7.312;2022-10-13T05:01:33;9.60;99.90
2873;DHT22;1444;49.166;7.312;2022-10-13T05:09:00;14.10;99.90
2873;DHT22;1444;49.166;7.312;2022-10-13T05:11:28;9.60;99.90
2873;DHT22;1444;49.166;7.312;2022-10-13T05:16:23;9.70;99.90
2873;DHT22;1444;49.166;7.312;2022-10-13T05:18:51;9.80;99.90
2873;DHT22;1444;49.166;7.312;2022-10-13T05:21:19;9.90;99.90
2873;DHT22;1444;49.166;7.312;2022-10-13T05:23:46;10.00;99.90
2873;DHT22;1444;49.166;7.312;2022-10-13T05:26:16;10.00;99.90
2873;DHT22;1444;49.166;7.312;2022-10-13T05:31:13;10.20;99.90
2873;DHT22;1444;49.166;7.312;2022-10-13T05:33:41;10.10;99.90
2873;DHT22;1444;49.166;7.312;2022-10-13T05:36:10;10.10;99.90
2873;DHT22;1444;49.166;7.312;2022-10-13T05:41:05;10.20;99.90
2873;DHT22;1444;49.166;7.312;2022-10-13T05:43:34;10.20;99.90
2873;DHT22;1444;49.166;7.312;2022-10-13T05:48:29;10.20;99.90
2873;DHT22;1444;49.166;7.312;2022-10-13T05:53:28;10.20;99.90
2873;DHT22;1444;49.166;7.312;2022-10-13T05:58:32;10.30;99.90
2873;DHT22;1444;49.166;7.312;2022-10-13T06:00:59;10.40;99.90
2873;DHT22;1444;49.166;7.312;2022-10-13T06:05:55;10.50;99.90
2873;DHT22;1444;49.166;7.312;2022-10-13T06:08:22;10.50;99.90
2873;DHT22;1444;49.166;7.312;2022-10-13T06:10:49;10.60;99.90
2873;DHT22;1444;49.166;7.312;2022-10-13T06:13:15;10.60;99.90
2873;DHT22;1444;49.166;7.312;2022-10-13T06:15:43;10.60;99.90
2873;DHT22;1444;49.166;7.312;2022-10-13T06:18:10;10.50;99.90
2873;DHT22;1444;49.166;7.312;2022-10-13T06:20:37;10.60;99.90
2873;DHT22;1444;49.166;7.312;2022-10-13T06:23:04;10.50;99.90
2873;DHT22;1444;49.166;7.312;2022-10-13T06:25:30;10.40;99.90
2873;DHT22;1444;49.166;7.312;2022-10-13T06:32:54;9.90;99.90
2873;DHT22;1444;49.166;7.312;2022-10-13T06:35:20;9.90;99.90
2873;DHT22;1444;49.166;7.312;2022-10-13T06:45:09;10.20;99.90
2873;DHT22;1444;49.166;7.312;2022-10-13T06:47:36;10.30;99.90
2873;DHT22;1444;49.166;7.312;2022-10-13T06:54:59;10.30;99.90
2873;DHT22;1444;49.166;7.312;2022-10-13T06:57:25;10.30;99.90
2873;DHT22;1444;49.166;7.312;2022-10-13T06:59:52;10.30;99.90
2873;DHT22;1444;49.166;7.312;2022-10-13T07:02:19;10.40;99.90
2873;DHT22;1444;49.166;7.312;2022-10-13T07:04:46;10.40;99.90
2873;DHT22;1444;49.166;7.312;2022-10-13T07:12:08;10.50;99.90
2873;DHT22;1444;49.166;7.312;2022-10-13T07:14:35;10.60;99.90
2873;DHT22;1444;49.166;7.312;2022-10-13T07:17:02;10.80;99.90
2873;DHT22;1444;49.166;7.312;2022-10-13T07:19:28;10.90;99.90
2873;DHT22;1444;49.166;7.312;2022-10-13T07:21:55;11.00;99.90
2873;DHT22;1444;49.166;7.312;2022-10-13T07:24:24;11.10;99.90
2873;DHT22;1444;49.166;7.312;2022-10-13T07:26:51;11.10;99.90
2873;DHT22;1444;49.166;7.312;2022-10-13T07:31:45;11.20;99.90
2873;DHT22;1444;49.166;7.312;2022-10-13T07:34:13;11.20;99.90
2873;DHT22;1444;49.166;7.312;2022-10-13T07:36:40;11.10;99.90
2873;DHT22;1444;49.166;7.312;2022-10-13T07:41:36;10.90;99.90
2873;DHT22;1444;49.166;7.312;2022-10-13T07:44:03;10.90;99.90
2873;DHT22;1444;49.166;7.312;2022-10-13T07:46:30;11.00;99.90
2873;DHT22;1444;49.166;7.312;2022-10-13T07:48:56;11.00;99.90
2873;DHT22;1444;49.166;7.312;2022-10-13T07:51:23;11.10;99.90
2873;DHT22;1444;49.166;7.312;2022-10-13T07:53:50;11.10;99.90
2873;DHT22;1444;49.166;7.312;2022-10-13T07:58:46;11.10;99.90
2873;DHT22;1444;49.166;7.312;2022-10-13T08:01:14;11.00;99.90
2873;DHT22;1444;49.166;7.312;2022-10-13T08:06:09;11.00;99.90
2873;DHT22;1444;49.166;7.312;2022-10-13T08:08:36;11.10;99.90
2873;DHT22;1444;49.166;7.312;2022-10-13T08:11:06;11.20;99.90
2873;DHT22;1444;49.166;7.312;2022-10-13T08:13:34;11.30;99.90
2873;DHT22;1444;49.166;7.312;2022-10-13T08:16:02;11.30;99.90
2873;DHT22;1444;49.166;7.312;2022-10-13T08:18:30;11.20;99.90
2873;DHT22;1444;49.166;7.312;2022-10-13T08:20:59;11.20;99.90
2873;DHT22;1444;49.166;7.312;2022-10-13T08:28:24;11.30;99.90
2873;DHT22;1444;49.166;7.312;2022-10-13T08:30:51;11.40;99.90
2873;DHT22;1444;49.166;7.312;2022-10-13T08:33:21;11.40;99.90
2873;DHT22;1444;49.166;7.312;2022-10-13T08:40:46;11.80;99.90
2873;DHT22;1444;49.166;7.312;2022-10-13T08:43:15;15.20;99.90
2873;DHT22;1444;49.166;7.312;2022-10-13T08:45:42;9.70;99.90
2873;DHT22;1444;49.166;7.312;2022-10-13T08:48:12;12.30;99.90
2873;DHT22;1444;49.166;7.312;2022-10-13T08:50:44;12.50;99.90
2873;DHT22;1444;49.166;7.312;2022-10-13T08:53:19;12.60;99.90
2873;DHT22;1444;49.166;7.312;2022-10-13T08:55:50;12.70;99.90
2873;DHT22;1444;49.166;7.312;2022-10-13T09:00:52;12.90;99.90
2873;DHT22;1444;49.166;7.312;2022-10-13T09:06:01;13.00;99.90
2873;DHT22;1444;49.166;7.312;2022-10-13T09:08:35;13.10;99.90
2873;DHT22;1444;49.166;7.312;2022-10-13T09:11:03;13.10;99.90
2873;DHT22;1444;49.166;7.312;2022-10-13T09:15:57;13.20;99.90
2873;DHT22;1444;49.166;7.312;2022-10-13T09:18:28;13.10;99.90
2873;DHT22;1444;49.166;7.312;2022-10-13T09:21:19;13.00;99.90
2873;DHT22;1444;49.166;7.312;2022-10-13T09:23:50;13.00;99.90
2873;DHT22;1444;49.166;7.312;2022-10-13T09:26:20;13.10;99.90
2873;DHT22;1444;49.166;7.312;2022-10-13T09:31:17;13.30;99.90
2873;DHT22;1444;49.166;7.312;2022-10-13T09:36:13;13.50;99.90
2873;DHT22;1444;49.166;7.312;2022-10-13T09:38:43;13.50;99.90
2873;DHT22;1444;49.166;7.312;2022-10-13T09:41:14;13.50;99.90
2873;DHT22;1444;49.166;7.312;2022-10-13T09:46:20;13.70;99.90
2873;DHT22;1444;49.166;7.312;2022-10-13T09:48:50;13.80;99.90
2873;DHT22;1444;49.166;7.312;2022-10-13T09:51:32;14.00;99.90
2873;DHT22;1444;49.166;7.312;2022-10-13T09:54:00;14.10;99.90
2873;DHT22;1444;49.166;7.312;2022-10-13T09:56:32;14.30;99.90
2873;DHT22;1444;49.166;7.312;2022-10-13T10:01:38;14.60;99.90
2873;DHT22;1444;49.166;7.312;2022-10-13T10:04:08;14.90;99.90
2873;DHT22;1444;49.166;7.312;2022-10-13T10:06:36;15.10;99.90
2873;DHT22;1444;49.166;7.312;2022-10-13T10:09:24;15.20;99.90
2873;DHT22;1444;49.166;7.312;2022-10-13T10:11:54;15.30;99.90
2873;DHT22;1444;49.166;7.312;2022-10-13T10:14:24;15.30;99.90
2873;DHT22;1444;49.166;7.312;2022-10-13T10:21:56;15.50;99.90
2873;DHT22;1444;49.166;7.312;2022-10-13T10:24:36;15.70;99.90
2873;DHT22;1444;49.166;7.312;2022-10-13T10:27:06;15.90;99.90
2873;DHT22;1444;49.166;7.312;2022-10-13T10:29:40;16.10;99.90
2873;DHT22;1444;49.166;7.312;2022-10-13T10:32:20;16.10;99.90
2873;DHT22;1444;49.166;7.312;2022-10-13T10:37:35;16.00;99.90
2873;DHT22;1444;49.166;7.312;2022-10-13T10:40:14;16.10;99.90
2873;DHT22;1444;49.166;7.312;2022-10-13T10:43:03;16.00;99.90
2873;DHT22;1444;49.166;7.312;2022-10-13T10:45:33;16.10;99.90
2873;DHT22;1444;49.166;7.312;2022-10-13T10:48:07;16.00;99.90
2873;DHT22;1444;49.166;7.312;2022-10-13T10:50:38;15.90;99.90
2873;DHT22;1444;49.166;7.312;2022-10-13T10:53:11;15.90;99.90
2873;DHT22;1444;49.166;7.312;2022-10-13T10:55:46;15.90;99.90
2873;DHT22;1444;49.166;7.312;2022-10-13T10:58:24;15.90;99.90
2873;DHT22;1444;49.166;7.312;2022-10-13T11:00:58;15.90;99.90
2873;DHT22;1444;49.166;7.312;2022-10-13T11:03:38;15.90;99.90
2873;DHT22;1444;49.166;7.312;2022-10-13T11:06:22;15.80;99.90
2873;DHT22;1444;49.166;7.312;2022-10-13T11:08:51;14.90;99.90
2873;DHT22;1444;49.166;7.312;2022-10-13T11:11:32;15.70;99.90
2873;DHT22;1444;49.166;7.312;2022-10-13T11:14:00;15.60;99.90
2873;DHT22;1444;49.166;7.312;2022-10-13T11:16:31;15.60;99.90
2873;DHT22;1444;49.166;7.312;2022-10-13T11:19:03;15.70;99.90
2873;DHT22;1444;49.166;7.312;2022-10-13T11:30:44;15.80;99.90
2873;DHT22;1444;49.166;7.312;2022-10-13T11:33:52;15.80;99.90
2873;DHT22;1444;49.166;7.312;2022-10-13T11:36:52;15.90;99.90
2873;DHT22;1444;49.166;7.312;2022-10-13T11:43:02;15.90;99.90
2873;DHT22;1444;49.166;7.312;2022-10-13T11:45:58;15.90;99.90
2873;DHT22;1444;49.166;7.312;2022-10-13T11:48:44;16.00;99.90
2873;DHT22;1444;49.166;7.312;2022-10-13T11:51:26;16.10;99.90
2873;DHT22;1444;49.166;7.312;2022-10-13T11:54:03;16.20;99.90
2873;DHT22;1444;49.166;7.312;2022-10-13T11:56:34;16.40;99.90
2873;DHT22;1444;49.166;7.312;2022-10-13T11:59:01;16.50;99.90
2873;DHT22;1444;49.166;7.312;2022-10-13T12:01:29;16.50;99.90
2873;DHT22;1444;49.166;7.312;2022-10-13T12:03:56;16.50;99.90
2873;DHT22;1444;49.166;7.312;2022-10-13T12:06:27;16.50;99.90
2873;DHT22;1444;49.166;7.312;2022-10-13T12:09:01;16.60;99.90
2873;DHT22;1444;49.166;7.312;2022-10-13T12:11:30;16.60;99.90
2873;DHT22;1444;49.166;7.312;2022-10-13T12:16:26;16.60;99.90
2873;DHT22;1444;49.166;7.312;2022-10-13T12:19:05;16.40;99.90
2873;DHT22;1444;49.166;7.312;2022-10-13T12:21:32;16.30;99.90
2873;DHT22;1444;49.166;7.312;2022-10-13T12:24:07;16.30;99.90
2873;DHT22;1444;49.166;7.312;2022-10-13T12:26:34;16.30;99.90
2873;DHT22;1444;49.166;7.312;2022-10-13T12:31:37;16.30;99.90
2873;DHT22;1444;49.166;7.312;2022-10-13T12:34:20;16.20;99.90
2873;DHT22;1444;49.166;7.312;2022-10-13T12:36:53;16.30;99.90
2873;DHT22;1444;49.166;7.312;2022-10-13T12:39:20;16.20;99.90
2873;DHT22;1444;49.166;7.312;2022-10-13T12:41:50;16.30;99.90
2873;DHT22;1444;49.166;7.312;2022-10-13T12:46:47;16.30;99.90
2873;DHT22;1444;49.166;7.312;2022-10-13T12:49:20;16.30;99.90
2873;DHT22;1444;49.166;7.312;2022-10-13T12:51:48;16.30;99.90
2873;DHT22;1444;49.166;7.312;2022-10-13T12:54:20;16.30;99.90
2873;DHT22;1444;49.166;7.312;2022-10-13T12:56:49;16.30;99.90
2873;DHT22;1444;49.166;7.312;2022-10-13T12:59:17;16.40;99.90
2873;DHT22;1444;49.166;7.312;2022-10-13T13:01:51;16.50;99.90
2873;DHT22;1444;49.166;7.312;2022-10-13T13:07:27;16.50;99.90
2873;DHT22;1444;49.166;7.312;2022-10-13T13:10:08;16.50;99.90
2873;DHT22;1444;49.166;7.312;2022-10-13T13:12:38;16.40;99.90
2873;DHT22;1444;49.166;7.312;2022-10-13T13:15:29;16.40;99.90
2873;DHT22;1444;49.166;7.312;2022-10-13T13:18:30;16.40;99.90
2873;DHT22;1444;49.166;7.312;2022-10-13T13:21:00;16.40;99.90
2873;DHT22;1444;49.166;7.312;2022-10-13T13:23:27;16.40;99.90
2873;DHT22;1444;49.166;7.312;2022-10-13T13:26:00;16.40;99.90
2873;DHT22;1444;49.166;7.312;2022-10-13T13:28:28;16.40;99.90
2873;DHT22;1444;49.166;7.312;2022-10-13T13:30:55;16.30;99.90
2873;DHT22;1444;49.166;7.312;2022-10-13T13:33:22;16.50;99.90
2873;DHT22;1444;49.166;7.312;2022-10-13T13:35:51;16.50;99.90
2873;DHT22;1444;49.166;7.312;2022-10-13T13:38:18;19.70;99.90
2873;DHT22;1444;49.166;7.312;2022-10-13T13:45:39;16.50;99.90
2873;DHT22;1444;49.166;7.312;2022-10-13T13:48:06;16.50;99.90
2873;DHT22;1444;49.166;7.312;2022-10-13T13:50:34;16.50;99.90
2873;DHT22;1444;49.166;7.312;2022-10-13T13:53:03;16.50;99.90
2873;DHT22;1444;49.166;7.312;2022-10-13T13:55:31;16.50;99.90
2873;DHT22;1444;49.166;7.312;2022-10-13T14:05:18;16.50;99.90
2873;DHT22;1444;49.166;7.312;2022-10-13T14:07:45;16.50;99.90
2873;DHT22;1444;49.166;7.312;2022-10-13T14:10:13;16.50;99.90
2873;DHT22;1444;49.166;7.312;2022-10-13T14:12:40;16.50;99.90
2873;DHT22;1444;49.166;7.312;2022-10-13T14:17:35;16.40;99.90
2873;DHT22;1444;49.166;7.312;2022-10-13T14:20:02;16.40;99.90
2873;DHT22;1444;49.166;7.312;2022-10-13T14:22:29;16.40;99.90
2873;DHT22;1444;49.166;7.312;2022-10-13T14:24:55;16.40;99.90
2873;DHT22;1444;49.166;7.312;2022-10-13T14:27:23;16.40;99.90
2873;DHT22;1444;49.166;7.312;2022-10-13T14:29:50;16.40;99.90
2873;DHT22;1444;49.166;7.312;2022-10-13T14:32:17;16.40;99.90
2873;DHT22;1444;49.166;7.312;2022-10-13T14:34:44;16.40;99.90
2873;DHT22;1444;49.166;7.312;2022-10-13T14:37:11;16.40;99.90
2873;DHT22;1444;49.166;7.312;2022-10-13T14:39:37;16.40;99.90
2873;DHT22;1444;49.166;7.312;2022-10-13T14:44:33;16.50;99.90
2873;DHT22;1444;49.166;7.312;2022-10-13T14:46:59;16.50;99.90
2873;DHT22;1444;49.166;7.312;2022-10-13T14:49:26;16.50;99.90
2873;DHT22;1444;49.166;7.312;2022-10-13T14:51:53;16.60;99.90
2873;DHT22;1444;49.166;7.312;2022-10-13T14:54:19;16.70;99.90
2873;DHT22;1444;49.166;7.312;2022-10-13T14:56:46;16.80;99.90
2873;DHT22;1444;49.166;7.312;2022-10-13T14:59:13;16.80;99.90
2873;DHT22;1444;49.166;7.312;2022-10-13T15:01:41;16.70;99.90
2873;DHT22;1444;49.166;7.312;2022-10-13T15:04:08;16.70;99.90
2873;DHT22;1444;49.166;7.312;2022-10-13T15:06:36;16.70;99.90
2873;DHT22;1444;49.166;7.312;2022-10-13T15:09:03;16.70;99.90
2873;DHT22;1444;49.166;7.312;2022-10-13T15:11:31;16.60;99.90
2873;DHT22;1444;49.166;7.312;2022-10-13T15:13:58;16.50;99.90
2873;DHT22;1444;49.166;7.312;2022-10-13T15:16:27;16.50;99.90
2873;DHT22;1444;49.166;7.312;2022-10-13T15:18:55;16.40;99.90
2873;DHT22;1444;49.166;7.312;2022-10-13T15:21:23;16.40;99.90
2873;DHT22;1444;49.166;7.312;2022-10-13T15:23:50;19.40;99.90
2873;DHT22;1444;49.166;7.312;2022-10-13T15:26:18;16.20;99.90
2873;DHT22;1444;49.166;7.312;2022-10-13T15:28:46;16.30;99.90
2873;DHT22;1444;49.166;7.312;2022-10-13T15:31:15;16.30;99.90
2873;DHT22;1444;49.166;7.312;2022-10-13T15:36:11;16.20;99.90
2873;DHT22;1444;49.166;7.312;2022-10-13T15:38:38;16.40;99.90
2873;DHT22;1444;49.166;7.312;2022-10-13T15:41:05;16.40;99.90
2873;DHT22;1444;49.166;7.312;2022-10-13T15:43:33;16.40;99.90
2873;DHT22;1444;49.166;7.312;2022-10-13T15:46:02;16.40;99.90
2873;DHT22;1444;49.166;7.312;2022-10-13T15:48:29;16.30;99.90
2873;DHT22;1444;49.166;7.312;2022-10-13T15:50:56;16.30;99.90
2873;DHT22;1444;49.166;7.312;2022-10-13T15:53:24;16.30;99.90
2873;DHT22;1444;49.166;7.312;2022-10-13T15:58:19;16.30;99.90
2873;DHT22;1444;49.166;7.312;2022-10-13T16:00:45;16.30;99.90
2873;DHT22;1444;49.166;7.312;2022-10-13T16:03:14;16.30;99.90
2873;DHT22;1444;49.166;7.312;2022-10-13T16:05:42;16.30;99.90
2873;DHT22;1444;49.166;7.312;2022-10-13T16:08:09;16.30;99.90
2873;DHT22;1444;49.166;7.312;2022-10-13T16:10:39;16.20;99.90
2873;DHT22;1444;49.166;7.312;2022-10-13T16:13:06;16.20;99.90
2873;DHT22;1444;49.166;7.312;2022-10-13T16:15:34;16.20;99.90
2873;DHT22;1444;49.166;7.312;2022-10-13T16:18:01;16.20;99.90
2873;DHT22;1444;49.166;7.312;2022-10-13T16:20:27;16.20;99.90
2873;DHT22;1444;49.166;7.312;2022-10-13T16:22:58;16.20;99.90
2873;DHT22;1444;49.166;7.312;2022-10-13T16:25:25;16.30;99.90
2873;DHT22;1444;49.166;7.312;2022-10-13T16:27:53;16.40;99.90
2873;DHT22;1444;49.166;7.312;2022-10-13T16:30:20;16.30;99.90
2873;DHT22;1444;49.166;7.312;2022-10-13T16:32:47;16.30;99.90
2873;DHT22;1444;49.166;7.312;2022-10-13T16:35:14;16.30;99.90
2873;DHT22;1444;49.166;7.312;2022-10-13T16:37:40;16.40;99.90
2873;DHT22;1444;49.166;7.312;2022-10-13T16:42:34;16.40;99.90
2873;DHT22;1444;49.166;7.312;2022-10-13T16:45:03;16.50;99.90
2873;DHT22;1444;49.166;7.312;2022-10-13T16:47:30;16.60;99.90
2873;DHT22;1444;49.166;7.312;2022-10-13T16:49:57;16.70;99.90
2873;DHT22;1444;49.166;7.312;2022-10-13T16:52:24;16.60;99.90
2873;DHT22;1444;49.166;7.312;2022-10-13T16:54:50;16.60;99.90
2873;DHT22;1444;49.166;7.312;2022-10-13T16:57:17;16.50;99.90
2873;DHT22;1444;49.166;7.312;2022-10-13T16:59:44;16.50;99.90
2873;DHT22;1444;49.166;7.312;2022-10-13T17:02:13;16.50;99.90
2873;DHT22;1444;49.166;7.312;2022-10-13T17:04:40;16.40;99.90
2873;DHT22;1444;49.166;7.312;2022-10-13T17:07:07;16.30;99.90
2873;DHT22;1444;49.166;7.312;2022-10-13T17:12:01;16.20;99.90
2873;DHT22;1444;49.166;7.312;2022-10-13T17:14:28;16.20;99.90
2873;DHT22;1444;49.166;7.312;2022-10-13T17:19:23;15.90;99.90
2873;DHT22;1444;49.166;7.312;2022-10-13T17:21:50;15.90;99.90
2873;DHT22;1444;49.166;7.312;2022-10-13T17:24:17;15.80;99.90
2873;DHT22;1444;49.166;7.312;2022-10-13T17:26:44;15.80;99.90
2873;DHT22;1444;49.166;7.312;2022-10-13T17:29:11;15.80;99.90
2873;DHT22;1444;49.166;7.312;2022-10-13T17:31:37;15.80;99.90
2873;DHT22;1444;49.166;7.312;2022-10-13T17:34:04;15.70;99.90
2873;DHT22;1444;49.166;7.312;2022-10-13T17:36:35;15.70;99.90
2873;DHT22;1444;49.166;7.312;2022-10-13T17:39:04;15.70;99.90
2873;DHT22;1444;49.166;7.312;2022-10-13T17:41:31;15.60;99.90
2873;DHT22;1444;49.166;7.312;2022-10-13T17:43:58;15.70;99.90
2873;DHT22;1444;49.166;7.312;2022-10-13T17:46:27;15.60;99.90
2873;DHT22;1444;49.166;7.312;2022-10-13T17:51:22;15.60;99.90
2873;DHT22;1444;49.166;7.312;2022-10-13T17:53:51;15.60;99.90
2873;DHT22;1444;49.166;7.312;2022-10-13T17:56:19;15.70;99.90
2873;DHT22;1444;49.166;7.312;2022-10-13T17:58:47;15.60;99.90
2873;DHT22;1444;49.166;7.312;2022-10-13T18:01:16;15.60;99.90
2873;DHT22;1444;49.166;7.312;2022-10-13T18:03:43;15.60;99.90
2873;DHT22;1444;49.166;7.312;2022-10-13T18:06:10;15.60;99.90
2873;DHT22;1444;49.166;7.312;2022-10-13T18:08:36;15.60;99.90
2873;DHT22;1444;49.166;7.312;2022-10-13T18:11:06;15.50;99.90
2873;DHT22;1444;49.166;7.312;2022-10-13T18:13:33;15.50;99.90
2873;DHT22;1444;49.166;7.312;2022-10-13T18:16:04;15.50;99.90
2873;DHT22;1444;49.166;7.312;2022-10-13T18:18:31;15.50;99.90
2873;DHT22;1444;49.166;7.312;2022-10-13T18:21:00;15.50;99.90
2873;DHT22;1444;49.166;7.312;2022-10-13T18:23:29;15.50;99.90
2873;DHT22;1444;49.166;7.312;2022-10-13T18:25:59;15.40;99.90
2873;DHT22;1444;49.166;7.312;2022-10-13T18:28:29;15.40;99.90
2873;DHT22;1444;49.166;7.312;2022-10-13T18:31:01;15.50;99.90
2873;DHT22;1444;49.166;7.312;2022-10-13T18:33:28;15.40;99.90
2873;DHT22;1444;49.166;7.312;2022-10-13T18:35:55;15.40;99.90
2873;DHT22;1444;49.166;7.312;2022-10-13T18:40:49;15.40;99.90
2873;DHT22;1444;49.166;7.312;2022-10-13T18:43:16;15.50;99.90
2873;DHT22;1444;49.166;7.312;2022-10-13T18:45:44;15.40;99.90
2873;DHT22;1444;49.166;7.312;2022-10-13T18:48:11;15.40;99.90
2873;DHT22;1444;49.166;7.312;2022-10-13T18:50:39;15.50;99.90
2873;DHT22;1444;49.166;7.312;2022-10-13T18:53:06;15.40;99.90
2873;DHT22;1444;49.166;7.312;2022-10-13T18:55:32;15.40;99.90
2873;DHT22;1444;49.166;7.312;2022-10-13T18:58:00;15.40;99.90
2873;DHT22;1444;49.166;7.312;2022-10-13T19:00:27;15.40;99.90
2873;DHT22;1444;49.166;7.312;2022-10-13T19:02:55;15.40;99.90
2873;DHT22;1444;49.166;7.312;2022-10-13T19:05:22;15.30;99.90
2873;DHT22;1444;49.166;7.312;2022-10-13T19:07:48;15.30;99.90
2873;DHT22;1444;49.166;7.312;2022-10-13T19:10:15;15.30;99.90
2873;DHT22;1444;49.166;7.312;2022-10-13T19:12:42;15.30;99.90
2873;DHT22;1444;49.166;7.312;2022-10-13T19:15:09;15.20;99.90
2873;DHT22;1444;49.166;7.312;2022-10-13T19:17:35;15.30;99.90
2873;DHT22;1444;49.166;7.312;2022-10-13T19:22:31;15.30;99.90
2873;DHT22;1444;49.166;7.312;2022-10-13T19:27:25;15.30;99.90
2873;DHT22;1444;49.166;7.312;2022-10-13T19:29:52;15.20;99.90
2873;DHT22;1444;49.166;7.312;2022-10-13T19:32:19;15.20;99.90
2873;DHT22;1444;49.166;7.312;2022-10-13T19:34:46;15.10;99.90
2873;DHT22;1444;49.166;7.312;2022-10-13T19:37:14;15.20;99.90
2873;DHT22;1444;49.166;7.312;2022-10-13T19:39:41;15.20;99.90
2873;DHT22;1444;49.166;7.312;2022-10-13T19:42:08;15.10;99.90
2873;DHT22;1444;49.166;7.312;2022-10-13T19:47:02;15.20;99.90
2873;DHT22;1444;49.166;7.312;2022-10-13T19:49:29;15.20;99.90
2873;DHT22;1444;49.166;7.312;2022-10-13T19:51:55;15.10;99.90
2873;DHT22;1444;49.166;7.312;2022-10-13T19:54:24;15.10;99.90
2873;DHT22;1444;49.166;7.312;2022-10-13T19:56:51;15.10;99.90
2873;DHT22;1444;49.166;7.312;2022-10-13T19:59:18;15.00;99.90
2873;DHT22;1444;49.166;7.312;2022-10-13T20:01:45;15.00;99.90
2873;DHT22;1444;49.166;7.312;2022-10-13T20:04:13;15.00;99.90
2873;DHT22;1444;49.166;7.312;2022-10-13T20:06:40;15.00;99.90
2873;DHT22;1444;49.166;7.312;2022-10-13T20:09:07;14.90;99.90